Time;durP1;ratioP1;P1;durP2;ratioP2;P2;SDS_P1;SDS_P2;PMS_P1;PMS_P2;Temp;Humidity;BMP_temperature;BMP_pressure;BME280_temperature;BME280_humidity;BME280_pressure;Samples;Min_cycle;Max_cycle;Signal;HPM_P1;HPM_P2
2021/12/25 00:00:56;;;;;;;5.93;0.87;;;-0.90;99.90;;;;;;5012256;28;20048;-30
2021/12/25 00:03:25;;;;;;;3.07;0.90;;;-1.00;99.90;;;;;;5008767;28;20101;-30
2021/12/25 00:05:54;;;;;;;4.47;0.67;;;-1.00;99.90;;;;;;4983719;28;20060;-30
2021/12/25 00:08:25;;;;;;;5.37;0.80;;;-1.10;99.90;;;;;;4993279;28;20081;-31
2021/12/25 00:10:52;;;;;;;4.45;1.02;;;-1.10;99.90;;;;;;5024513;28;20051;-30
2021/12/25 00:13:21;;;;;;;5.33;1.00;;;-1.10;99.90;;;;;;5028024;28;20521;-30
2021/12/25 00:15:48;;;;;;;3.57;0.77;;;-1.10;99.90;;;;;;5013585;28;20129;-30
2021/12/25 00:18:14;;;;;;;4.27;0.70;;;-1.20;99.90;;;;;;4993051;28;20138;-30
2021/12/25 00:20:40;;;;;;;5.30;0.70;;;-1.20;99.90;;;;;;5009337;28;20404;-30
2021/12/25 00:23:07;;;;;;;4.07;0.87;;;-1.30;99.90;;;;;;4987517;28;20054;-30
2021/12/25 00:25:38;;;;;;;6.30;0.90;;;-1.30;99.90;;;;;;5007359;28;20058;-30
2021/12/25 00:28:21;;;;;;;7.47;1.00;;;-1.40;99.90;;;;;;4971679;28;20121;-30
2021/12/25 00:36:04;;;;;;;5.80;0.70;;;-1.50;99.90;;;;;;4989477;28;20596;-29
2021/12/25 00:38:31;;;;;;;5.77;1.20;;;-1.50;99.90;;;;;;4974338;28;20045;-30
2021/12/25 00:40:57;;;;;;;6.13;1.20;;;-1.60;99.90;;;;;;4989598;28;20042;-29
2021/12/25 00:43:23;;;;;;;4.13;1.13;;;-1.60;99.90;;;;;;4970877;28;20061;-30
2021/12/25 00:45:49;;;;;;;5.83;1.17;;;-1.70;99.90;;;;;;4989340;28;20050;-30
2021/12/25 00:48:14;;;;;;;7.00;1.30;;;-1.70;99.90;;;;;;4971957;28;20061;-30
2021/12/25 00:50:40;;;;;;;6.27;1.20;;;-1.70;99.90;;;;;;4987831;28;20053;-30
2021/12/25 00:53:06;;;;;;;4.03;0.87;;;-1.80;99.90;;;;;;4986267;28;20057;-30
2021/12/25 00:55:32;;;;;;;3.13;1.13;;;-1.80;99.90;;;;;;4968528;28;20039;-30
2021/12/25 00:57:57;;;;;;;7.73;1.13;;;-1.90;99.90;;;;;;4953820;28;20127;-30
2021/12/25 01:00:23;;;;;;;6.37;1.20;;;-1.90;99.90;;;;;;4973108;28;20038;-30
2021/12/25 01:02:49;;;;;;;5.30;1.00;;;-1.90;99.90;;;;;;4988540;28;20061;-30
2021/12/25 01:05:16;;;;;;;8.97;1.30;;;-2.00;99.90;;;;;;4988700;28;20046;-29
2021/12/25 01:07:43;;;;;;;5.17;1.00;;;-1.90;99.90;;;;;;4973015;28;20054;-30
2021/12/25 01:10:13;;;;;;;9.03;0.70;;;-2.10;99.90;;;;;;4979593;28;20070;-30
2021/12/25 01:12:54;;;;;;;4.90;0.75;;;-2.10;99.90;;;;;;4968989;28;20047;-30
2021/12/25 01:15:28;;;;;;;5.03;0.95;;;-2.10;99.90;;;;;;4979574;28;20486;-30
2021/12/25 01:20:58;;;;;;;4.60;0.83;;;-2.20;99.90;;;;;;4988914;28;20046;-30
2021/12/25 01:39:10;;;;;;;7.20;0.70;;;-2.50;99.90;;;;;;5004639;28;20501;-30
2021/12/25 01:49:31;;;;;;;2.37;0.60;;;-2.70;99.90;;;;;;4992298;28;20049;-29
2021/12/25 01:51:57;;;;;;;4.17;0.50;;;-2.70;99.90;;;;;;5008031;28;20408;-30
2021/12/25 01:54:23;;;;;;;2.43;0.70;;;-2.70;99.90;;;;;;5007342;28;20394;-30
2021/12/25 01:56:49;;;;;;;3.67;0.57;;;-2.80;99.90;;;;;;4992750;28;20045;-30
2021/12/25 01:59:15;;;;;;;2.03;0.27;;;-2.80;99.90;;;;;;5007002;28;20110;-29
2021/12/25 02:01:41;;;;;;;3.23;0.60;;;-2.80;99.90;;;;;;4992409;28;20105;-30
2021/12/25 02:04:07;;;;;;;4.23;0.40;;;-2.90;99.90;;;;;;5002615;28;20141;-34
2021/12/25 02:06:33;;;;;;;3.27;0.33;;;-2.90;99.90;;;;;;4989955;28;20054;-30
2021/12/25 02:08:58;;;;;;;6.07;0.43;;;-2.90;99.90;;;;;;4987738;28;20069;-30
2021/12/25 02:11:25;;;;;;;3.90;0.50;;;-3.00;99.90;;;;;;4988570;28;20562;-30
2021/12/25 02:13:51;;;;;;;3.50;0.57;;;-3.00;99.90;;;;;;4970151;28;20418;-30
2021/12/25 02:16:19;;;;;;;3.97;0.47;;;-3.00;99.90;;;;;;4996516;28;20049;-30
2021/12/25 02:21:26;;;;;;;1.47;0.20;;;-3.10;99.90;;;;;;5007605;28;20489;-30
2021/12/25 02:23:52;;;;;;;4.43;0.50;;;-3.10;99.90;;;;;;5006723;28;20129;-29
2021/12/25 02:26:18;;;;;;;3.23;0.30;;;-3.10;99.90;;;;;;4996884;28;20541;-30
2021/12/25 02:28:45;;;;;;;2.57;0.30;;;-3.20;99.90;;;;;;4984341;28;20041;-30
2021/12/25 02:31:13;;;;;;;2.67;0.10;;;-3.20;99.90;;;;;;5007567;28;20049;-30
2021/12/25 02:33:39;;;;;;;4.13;0.40;;;-3.20;99.90;;;;;;4989344;28;20483;-30
2021/12/25 02:36:07;;;;;;;3.03;0.20;;;-3.30;99.90;;;;;;5008526;28;20045;-30
2021/12/25 02:38:34;;;;;;;2.00;0.20;;;-3.30;99.90;;;;;;5002220;28;20076;-30
2021/12/25 02:41:00;;;;;;;4.63;0.50;;;-3.30;99.90;;;;;;4993328;28;20187;-30
2021/12/25 02:43:26;;;;;;;2.53;0.30;;;-3.30;99.90;;;;;;4992709;28;20157;-31
2021/12/25 02:45:54;;;;;;;1.80;0.30;;;-3.40;99.90;;;;;;5011224;28;20056;-30
2021/12/25 02:48:21;;;;;;;2.63;0.20;;;-3.40;99.90;;;;;;4994584;28;20195;-31
2021/12/25 02:50:48;;;;;;;3.73;0.30;;;-3.40;99.90;;;;;;5011245;28;20050;-30
2021/12/25 02:53:15;;;;;;;1.67;0.20;;;-3.40;99.90;;;;;;5010189;28;20046;-30
2021/12/25 02:55:42;;;;;;;1.73;0.10;;;-3.50;99.90;;;;;;5011155;28;20049;-30
2021/12/25 02:58:09;;;;;;;1.80;0.10;;;-3.50;99.90;;;;;;4994609;28;20101;-30
2021/12/25 03:00:35;;;;;;;1.70;0.17;;;-3.50;99.90;;;;;;5011196;28;20041;-30
2021/12/25 03:03:03;;;;;;;1.03;0.13;;;-3.50;99.90;;;;;;5009911;28;20048;-30
2021/12/25 03:05:29;;;;;;;6.80;0.10;;;-3.50;99.90;;;;;;5002484;28;20104;-30
2021/12/25 03:07:55;;;;;;;3.63;0.10;;;-3.60;99.90;;;;;;4976870;28;20053;-30
2021/12/25 03:10:20;;;;;;;2.57;0.10;;;-3.60;99.90;;;;;;5010652;28;20038;-30
2021/12/25 03:12:54;;;;;;;1.20;0.20;;;-3.60;99.90;;;;;;5010048;28;20045;-30
2021/12/25 03:15:30;;;;;;;1.57;0.20;;;-3.60;99.90;;;;;;5010563;28;20044;-30
2021/12/25 03:17:57;;;;;;;1.23;0.20;;;-3.60;99.90;;;;;;4976293;28;20505;-30
2021/12/25 03:20:23;;;;;;;2.50;0.30;;;-3.70;99.90;;;;;;5010511;28;20052;-30
2021/12/25 03:22:49;;;;;;;1.63;0.20;;;-3.70;99.90;;;;;;4991433;28;20056;-31
2021/12/25 03:25:16;;;;;;;3.13;0.17;;;-3.70;99.90;;;;;;5010624;28;20038;-30
2021/12/25 03:27:44;;;;;;;1.93;0.23;;;-3.80;99.90;;;;;;4993580;28;20092;-30
2021/12/25 03:30:16;;;;;;;4.40;0.30;;;-3.80;99.90;;;;;;5010688;28;20180;-30
2021/12/25 03:32:43;;;;;;;2.73;0.20;;;-3.80;99.90;;;;;;4991572;28;20061;-30
2021/12/25 03:35:09;;;;;;;2.60;0.20;;;-3.80;99.90;;;;;;4992674;28;20060;-30
2021/12/25 03:37:34;;;;;;;1.27;0.20;;;-3.80;99.90;;;;;;4994614;28;20042;-30
2021/12/25 03:40:00;;;;;;;2.27;0.30;;;-3.80;99.90;;;;;;4992232;28;20445;-30
2021/12/25 03:42:26;;;;;;;0.60;0.10;;;-3.90;99.90;;;;;;4992004;28;20053;-30
2021/12/25 03:44:52;;;;;;;2.43;0.30;;;-3.90;99.90;;;;;;5010099;28;20134;-30
2021/12/25 03:53:11;;;;;;;3.80;0.40;;;-3.90;99.90;;;;;;5008946;28;20192;-30
2021/12/25 03:58:27;;;;;;;0.97;0.20;;;-4.00;99.90;;;;;;4993449;28;20104;-30
2021/12/25 04:00:59;;;;;;;0.50;0.10;;;-4.00;99.90;;;;;;5009428;28;20048;-30
2021/12/25 04:03:40;;;;;;;0.90;0.20;;;-4.00;99.90;;;;;;5007510;28;20038;-30
2021/12/25 04:06:09;;;;;;;3.00;0.33;;;-4.00;99.90;;;;;;4999478;28;20042;-29
2021/12/25 04:08:41;;;;;;;4.20;0.30;;;-4.10;99.90;;;;;;5001080;28;20807;-30
2021/12/25 04:11:13;;;;;;;4.20;0.20;;;-4.10;99.90;;;;;;5009284;28;20058;-30
2021/12/25 04:13:39;;;;;;;2.13;0.20;;;-4.10;99.90;;;;;;5008756;28;20049;-30
2021/12/25 04:16:05;;;;;;;2.53;0.20;;;-4.10;99.90;;;;;;5009428;28;20057;-30
2021/12/25 04:18:31;;;;;;;2.33;0.40;;;-4.10;99.90;;;;;;4995910;28;20493;-30
2021/12/25 04:20:56;;;;;;;0.90;0.07;;;-4.20;99.90;;;;;;5009718;28;20117;-31
2021/12/25 04:23:26;;;;;;;1.30;0.23;;;-4.20;99.90;;;;;;5008085;28;20488;-30
2021/12/25 04:25:54;;;;;;;2.37;0.30;;;-4.20;99.90;;;;;;4992291;28;20512;-30
2021/12/25 04:28:34;;;;;;;4.97;0.30;;;-4.20;99.90;;;;;;4975105;28;20137;-30
2021/12/25 04:31:21;;;;;;;4.53;0.20;;;-4.30;99.90;;;;;;5009628;28;20060;-30
2021/12/25 04:48:23;;;;;;;1.07;0.10;;;-4.30;99.90;;;;;;4992394;28;20117;-31
2021/12/25 05:04:07;;;;;;;1.83;0.30;;;-4.50;99.90;;;;;;5003586;28;20053;-30
2021/12/25 05:06:33;;;;;;;2.60;0.30;;;-4.50;99.90;;;;;;4991022;28;20289;-30
2021/12/25 05:08:59;;;;;;;2.87;0.10;;;-4.50;99.90;;;;;;5006221;28;20053;-30
2021/12/25 05:11:24;;;;;;;0.90;0.20;;;-4.50;99.90;;;;;;4989041;28;20101;-30
2021/12/25 05:13:50;;;;;;;4.40;0.20;;;-4.50;99.90;;;;;;4988164;28;20103;-30
2021/12/25 05:16:20;;;;;;;1.33;0.20;;;-4.50;99.90;;;;;;4997247;28;20053;-30
2021/12/25 05:18:46;;;;;;;1.67;0.33;;;-4.50;99.90;;;;;;5002749;28;20042;-30
2021/12/25 05:21:13;;;;;;;1.53;0.20;;;-4.50;99.90;;;;;;5008430;28;20050;-30
2021/12/25 05:23:39;;;;;;;5.53;0.50;;;-4.60;99.90;;;;;;4989455;28;20796;-31
2021/12/25 05:26:06;;;;;;;2.73;0.20;;;-4.60;99.90;;;;;;5008326;28;20342;-30
2021/12/25 05:28:58;;;;;;;4.63;0.30;;;-4.20;99.90;;;;;;4996256;28;20057;-30
2021/12/25 05:31:21;;;;;;;2.83;0.10;;;-4.60;99.90;;;;;;5008048;28;20111;-30
2021/12/25 05:33:46;;;;;;;2.83;0.33;;;-4.70;99.90;;;;;;5007143;28;20058;-30
2021/12/25 05:36:12;;;;;;;1.70;0.30;;;-4.70;99.90;;;;;;4981257;28;20057;-30
2021/12/25 05:38:38;;;;;;;0.73;0.10;;;-4.70;99.90;;;;;;5002005;28;20045;-30
2021/12/25 05:41:04;;;;;;;3.17;0.27;;;-4.70;99.90;;;;;;4990573;28;20526;-30
2021/12/25 05:43:29;;;;;;;2.83;0.23;;;-4.70;99.90;;;;;;5007472;28;20054;-30
2021/12/25 05:45:55;;;;;;;2.60;0.20;;;-4.80;99.90;;;;;;4990212;28;20796;-30
2021/12/25 05:48:21;;;;;;;2.63;0.30;;;-4.70;99.90;;;;;;4974381;28;20081;-30
2021/12/25 05:50:47;;;;;;;2.27;0.30;;;-4.80;99.90;;;;;;5007989;28;20516;-30
2021/12/25 05:53:13;;;;;;;3.33;0.20;;;-4.80;99.90;;;;;;5007058;28;20498;-30
2021/12/25 05:55:39;;;;;;;1.23;0.30;;;-4.80;99.90;;;;;;5008211;28;20288;-30
2021/12/25 05:58:07;;;;;;;2.33;0.20;;;-4.80;99.90;;;;;;4991778;28;20784;-30
2021/12/25 06:00:34;;;;;;;3.10;0.50;;;-4.70;99.90;;;;;;5007836;28;20480;-30
2021/12/25 06:03:00;;;;;;;1.60;0.30;;;-4.80;99.90;;;;;;5007107;28;20289;-30
2021/12/25 06:05:26;;;;;;;2.27;0.30;;;-4.80;99.90;;;;;;4999286;28;20046;-30
2021/12/25 06:07:53;;;;;;;3.13;0.30;;;-4.80;99.90;;;;;;4971544;28;20312;-30
2021/12/25 06:10:19;;;;;;;4.00;0.40;;;-4.80;99.90;;;;;;4999804;28;20426;-30
2021/12/25 06:12:48;;;;;;;4.40;0.40;;;-4.80;99.90;;;;;;5010293;28;20048;-30
2021/12/25 06:15:15;;;;;;;2.63;0.30;;;-4.80;99.90;;;;;;4995391;28;20108;-30
2021/12/25 06:17:41;;;;;;;1.97;0.17;;;-4.80;99.90;;;;;;4995116;28;20054;-30
2021/12/25 06:20:08;;;;;;;1.47;0.20;;;-4.80;99.90;;;;;;5011911;28;20277;-30
2021/12/25 06:22:34;;;;;;;3.17;0.30;;;-4.80;99.90;;;;;;5010085;28;20398;-30
2021/12/25 06:24:59;;;;;;;3.40;0.33;;;-4.80;99.90;;;;;;4993876;28;20292;-30
2021/12/25 06:27:25;;;;;;;1.60;0.30;;;-4.80;99.90;;;;;;4994276;28;20053;-30
2021/12/25 06:29:51;;;;;;;2.40;0.37;;;-4.80;99.90;;;;;;4992277;28;20112;-30
2021/12/25 06:32:18;;;;;;;1.60;0.30;;;-4.80;99.90;;;;;;4991178;28;20466;-30
2021/12/25 06:34:45;;;;;;;3.37;0.30;;;-4.80;99.90;;;;;;4991679;28;20042;-30
2021/12/25 06:37:11;;;;;;;3.77;0.50;;;-4.80;99.90;;;;;;4945499;28;20059;-30
2021/12/25 06:39:39;;;;;;;2.23;0.10;;;-4.80;99.90;;;;;;4972315;28;20288;-30
2021/12/25 06:42:06;;;;;;;2.00;0.30;;;-4.80;99.90;;;;;;4971701;28;20289;-30
2021/12/25 06:44:33;;;;;;;2.97;0.50;;;-4.80;99.90;;;;;;4972303;28;20124;-30
2021/12/25 06:46:58;;;;;;;2.80;0.43;;;-4.80;99.90;;;;;;4939269;28;20318;-30
2021/12/25 06:49:24;;;;;;;2.33;0.30;;;-4.80;99.90;;;;;;4971067;28;20097;-30
2021/12/25 06:51:51;;;;;;;4.33;0.30;;;-4.80;99.90;;;;;;4971997;28;20098;-30
2021/12/25 06:54:17;;;;;;;2.63;0.20;;;-4.80;99.90;;;;;;4953522;28;20089;-30
2021/12/25 06:56:44;;;;;;;0.53;0.30;;;-4.80;99.90;;;;;;4958165;28;20082;-30
2021/12/25 06:59:10;;;;;;;1.63;0.20;;;-4.80;99.90;;;;;;4953592;28;20098;-30
2021/12/25 07:01:37;;;;;;;4.43;0.37;;;-4.80;99.90;;;;;;4974378;28;20270;-30
2021/12/25 07:04:03;;;;;;;1.83;0.20;;;-4.80;99.90;;;;;;4974513;28;20653;-30
2021/12/25 07:06:29;;;;;;;1.53;0.20;;;-4.80;99.90;;;;;;4978119;28;20759;-30
2021/12/25 07:08:55;;;;;;;2.90;0.30;;;-4.50;99.90;;;;;;4971524;28;20046;-30
2021/12/25 07:11:21;;;;;;;2.70;0.40;;;-4.80;99.90;;;;;;4970146;28;20047;-30
2021/12/25 07:13:48;;;;;;;2.97;0.40;;;-4.80;99.90;;;;;;4969650;28;20483;-30
2021/12/25 07:16:14;;;;;;;1.57;0.20;;;-4.80;99.90;;;;;;4964074;28;20052;-30
2021/12/25 07:18:39;;;;;;;2.40;0.30;;;-4.80;99.90;;;;;;4983891;28;20129;-30
2021/12/25 07:21:05;;;;;;;4.00;0.30;;;-4.80;99.90;;;;;;4972510;28;20105;-30
2021/12/25 07:23:32;;;;;;;0.63;0.10;;;-4.90;99.90;;;;;;4984461;28;20047;-30
2021/12/25 07:25:59;;;;;;;1.97;0.20;;;-4.90;99.90;;;;;;4973747;28;20130;-30
2021/12/25 07:28:28;;;;;;;4.47;0.30;;;-4.90;99.90;;;;;;4954788;28;20082;-29
2021/12/25 07:30:56;;;;;;;1.67;0.30;;;-4.90;99.90;;;;;;4971213;28;20937;-30
2021/12/25 07:33:22;;;;;;;4.40;0.33;;;-4.90;99.90;;;;;;4970604;28;20839;-30
2021/12/25 07:35:48;;;;;;;2.17;0.50;;;-4.90;99.90;;;;;;4955488;28;20298;-30
2021/12/25 07:38:15;;;;;;;3.97;0.20;;;-4.90;99.90;;;;;;4957553;28;20053;-30
2021/12/25 07:40:41;;;;;;;4.80;0.50;;;-4.90;99.90;;;;;;4989924;28;20130;-30
2021/12/25 07:43:07;;;;;;;3.17;0.30;;;-4.90;99.90;;;;;;4987854;28;20170;-30
2021/12/25 07:45:33;;;;;;;2.07;0.20;;;-4.90;99.90;;;;;;4990002;28;20035;-30
2021/12/25 07:48:02;;;;;;;3.67;0.60;;;-5.00;99.90;;;;;;4972127;28;20054;-30
2021/12/25 07:50:30;;;;;;;1.83;0.30;;;-4.90;99.90;;;;;;4989729;28;20054;-30
2021/12/25 07:52:57;;;;;;;3.80;0.30;;;-5.00;99.90;;;;;;4988942;28;20112;-30
2021/12/25 07:55:23;;;;;;;4.80;0.40;;;-5.00;99.90;;;;;;4989578;28;20089;-30
2021/12/25 07:57:49;;;;;;;3.77;0.20;;;-5.00;99.90;;;;;;4973728;28;20042;-30
2021/12/25 08:00:16;;;;;;;2.57;0.20;;;-5.00;99.90;;;;;;4948368;28;20429;-30
2021/12/25 08:02:46;;;;;;;2.57;0.30;;;-5.00;99.90;;;;;;4986044;28;20050;-30
2021/12/25 08:05:12;;;;;;;3.77;0.30;;;-5.00;99.90;;;;;;4986368;28;20471;-30
2021/12/25 08:07:38;;;;;;;2.53;0.40;;;-5.00;99.90;;;;;;4952161;28;20286;-30
2021/12/25 08:10:17;;;;;;;1.20;0.20;;;-5.00;99.90;;;;;;4969008;28;20053;-30
2021/12/25 08:12:48;;;;;;;3.40;0.30;;;-5.00;99.90;;;;;;4986333;28;20051;-30
2021/12/25 08:15:16;;;;;;;1.20;0.30;;;-5.10;99.90;;;;;;4986344;28;20070;-30
2021/12/25 08:17:42;;;;;;;3.30;0.40;;;-5.00;99.90;;;;;;4969924;28;20344;-30
2021/12/25 08:20:09;;;;;;;2.20;0.20;;;-5.10;99.90;;;;;;4986457;28;20285;-30
2021/12/25 08:22:36;;;;;;;4.00;0.43;;;-5.10;99.90;;;;;;4983900;28;20502;-30
2021/12/25 08:25:03;;;;;;;4.10;0.40;;;-5.10;99.90;;;;;;4986309;28;20355;-30
2021/12/25 08:27:29;;;;;;;4.37;0.50;;;-5.10;99.90;;;;;;4969444;28;21024;-30
2021/12/25 08:29:55;;;;;;;1.83;0.70;;;-5.10;99.90;;;;;;4986024;28;20352;-30
2021/12/25 08:32:21;;;;;;;5.40;0.83;;;-5.10;99.90;;;;;;4982572;28;20046;-30
2021/12/25 08:34:47;;;;;;;3.90;0.50;;;-5.10;99.90;;;;;;4986200;28;20070;-30
2021/12/25 08:37:13;;;;;;;2.37;0.30;;;-5.10;99.90;;;;;;4969330;28;20576;-30
2021/12/25 08:39:39;;;;;;;2.60;0.60;;;-5.10;99.90;;;;;;4985709;28;20281;-29
2021/12/25 08:42:06;;;;;;;4.37;0.70;;;-5.00;99.90;;;;;;4982728;28;20046;-31
2021/12/25 08:44:52;;;;;;;2.10;0.40;;;-5.00;99.90;;;;;;4985662;28;20093;-30
2021/12/25 08:47:17;;;;;;;2.23;0.40;;;-5.00;99.90;;;;;;4949253;28;20286;-30
2021/12/25 08:49:43;;;;;;;1.33;0.40;;;-5.00;99.90;;;;;;4983160;28;20493;-30
2021/12/25 08:52:13;;;;;;;4.27;0.23;;;-5.00;99.90;;;;;;4985327;28;20058;-30
2021/12/25 08:54:40;;;;;;;2.03;0.33;;;-4.90;99.90;;;;;;4986139;28;20039;-30
2021/12/25 08:57:06;;;;;;;2.63;0.60;;;-4.90;99.90;;;;;;4968078;28;20294;-30
2021/12/25 08:59:34;;;;;;;4.43;0.53;;;-4.90;99.90;;;;;;4985605;28;20313;-30
2021/12/25 09:02:03;;;;;;;2.83;0.50;;;-4.90;99.90;;;;;;4985734;28;20353;-30
2021/12/25 09:04:29;;;;;;;4.20;0.40;;;-4.90;99.90;;;;;;4965027;28;20324;-30
2021/12/25 09:06:54;;;;;;;3.90;0.50;;;-4.80;99.90;;;;;;4969710;28;20467;-30
2021/12/25 09:09:20;;;;;;;3.27;0.37;;;-4.80;99.90;;;;;;4983579;28;20046;-30
2021/12/25 09:11:46;;;;;;;3.83;0.50;;;-4.80;99.90;;;;;;4957299;28;20049;-30
2021/12/25 09:14:12;;;;;;;2.80;0.30;;;-4.80;99.90;;;;;;4970160;28;20077;-30
2021/12/25 09:16:37;;;;;;;3.13;0.50;;;-4.70;99.90;;;;;;4942092;28;20529;-30
2021/12/25 09:19:03;;;;;;;4.40;0.40;;;-4.70;99.90;;;;;;4957541;28;20169;-30
2021/12/25 09:21:29;;;;;;;2.50;0.37;;;-4.70;99.90;;;;;;4984774;28;20046;-30
2021/12/25 09:23:55;;;;;;;3.53;0.47;;;-4.60;99.90;;;;;;4982069;28;20048;-30
2021/12/25 09:26:21;;;;;;;2.03;0.30;;;-4.60;99.90;;;;;;4973426;28;20445;-30
2021/12/25 09:28:47;;;;;;;1.57;0.37;;;-4.60;99.90;;;;;;4991952;28;20050;-30
2021/12/25 09:31:14;;;;;;;0.97;0.40;;;-4.50;99.90;;;;;;5005524;28;20062;-30
2021/12/25 09:33:40;;;;;;;4.63;0.60;;;-4.50;99.90;;;;;;5004071;28;20143;-30
2021/12/25 09:36:06;;;;;;;5.33;0.80;;;-4.50;99.90;;;;;;4998774;28;20687;-30
2021/12/25 09:38:34;;;;;;;5.23;0.47;;;-4.30;99.90;;;;;;4992626;28;20493;-31
2021/12/25 09:41:00;;;;;;;1.90;0.30;;;-4.50;99.90;;;;;;5000879;28;20080;-30
2021/12/25 09:43:26;;;;;;;1.60;0.30;;;-4.40;99.90;;;;;;4985272;28;20290;-30
2021/12/25 09:45:53;;;;;;;3.27;0.80;;;-4.40;99.90;;;;;;5000169;28;20088;-30
2021/12/25 09:48:19;;;;;;;4.33;0.40;;;-4.30;99.90;;;;;;4985426;28;20057;-30
2021/12/25 09:50:45;;;;;;;3.43;0.83;;;-4.30;99.90;;;;;;5003111;28;20367;-31
2021/12/25 09:53:13;;;;;;;3.47;0.60;;;-4.20;99.90;;;;;;5002746;28;20050;-30
2021/12/25 09:55:39;;;;;;;2.60;0.60;;;-4.10;99.90;;;;;;5003362;28;20038;-30
2021/12/25 09:58:07;;;;;;;4.13;0.60;;;-4.00;99.90;;;;;;4984628;28;20042;-30
2021/12/25 10:00:35;;;;;;;5.23;0.90;;;-3.90;99.90;;;;;;5004785;28;20041;-30
2021/12/25 10:03:01;;;;;;;3.50;0.50;;;-3.70;99.90;;;;;;5002690;28;20069;-31
2021/12/25 10:05:30;;;;;;;2.87;0.50;;;-3.60;99.90;;;;;;5000987;28;20092;-30
2021/12/25 10:08:15;;;;;;;4.93;0.60;;;-3.50;99.90;;;;;;4987167;28;20587;-30
2021/12/25 10:10:48;;;;;;;3.33;0.60;;;-3.40;99.90;;;;;;5001650;28;20155;-30
2021/12/25 10:13:39;;;;;;;2.07;0.40;;;-3.20;99.90;;;;;;4999067;28;20042;-30
2021/12/25 10:16:28;;;;;;;2.00;0.57;;;-3.10;99.90;;;;;;4998764;28;20048;-30
2021/12/25 10:19:11;;;;;;;4.83;0.40;;;-3.00;99.90;;;;;;4970619;28;20050;-30
2021/12/25 10:21:37;;;;;;;4.13;0.60;;;-2.80;99.90;;;;;;4967767;28;20441;-30
2021/12/25 10:24:12;;;;;;;4.07;0.50;;;-2.80;99.90;;;;;;5001776;28;20046;-31
2021/12/25 10:26:40;;;;;;;3.20;0.60;;;-2.70;99.90;;;;;;4984307;28;20129;-31
2021/12/25 10:29:35;;;;;;;5.20;0.73;;;-2.60;99.90;;;;;;4986351;28;20054;-30
2021/12/25 10:32:17;;;;;;;2.40;0.60;;;-2.40;99.90;;;;;;4966114;28;20081;-31
2021/12/25 10:34:44;;;;;;;2.77;0.53;;;-2.30;99.90;;;;;;4979037;28;20046;-31
2021/12/25 10:37:13;;;;;;;6.10;0.63;;;-2.10;99.90;;;;;;4967937;28;20194;-30
2021/12/25 10:39:39;;;;;;;4.60;0.70;;;-1.90;99.90;;;;;;4984239;28;20121;-31
2021/12/25 10:42:11;;;;;;;3.70;0.50;;;-1.70;99.90;;;;;;4966553;28;20073;-32
2021/12/25 10:44:40;;;;;;;1.30;0.40;;;-1.50;99.90;;;;;;4982365;28;20050;-31
2021/12/25 10:47:12;;;;;;;2.77;0.60;;;-1.40;99.90;;;;;;4949906;28;20182;-31
2021/12/25 10:49:56;;;;;;;6.10;0.73;;;-1.20;99.90;;;;;;4981929;28;20042;-31
2021/12/25 10:52:29;;;;;;;2.43;0.50;;;-1.10;99.90;;;;;;4980733;28;20058;-31
2021/12/25 10:55:02;;;;;;;2.30;0.57;;;-0.90;99.90;;;;;;4981483;28;20097;-31
2021/12/25 10:57:42;;;;;;;1.93;0.50;;;-0.90;99.90;;;;;;4951095;28;20549;-31
2021/12/25 11:00:10;;;;;;;4.43;0.63;;;-0.70;99.90;;;;;;4986737;28;20460;-31
2021/12/25 11:02:39;;;;;;;4.77;0.50;;;-0.60;99.90;;;;;;4987138;28;20050;-32
2021/12/25 11:05:26;;;;;;;2.57;0.40;;;-0.50;99.90;;;;;;4987610;28;20054;-32
2021/12/25 11:08:07;;;;;;;2.13;0.40;;;-0.50;99.90;;;;;;4966741;28;20061;-31
2021/12/25 11:10:42;;;;;;;4.20;0.63;;;-0.40;99.90;;;;;;4987029;28;20214;-32
2021/12/25 11:13:35;;;;;;;3.57;0.63;;;-0.40;99.90;;;;;;4985514;28;20261;-31
2021/12/25 11:16:07;;;;;;;4.10;0.60;;;-0.40;99.90;;;;;;4970806;28;20371;-31
2021/12/25 11:18:52;;;;;;;2.30;0.40;;;-0.40;99.90;;;;;;4963064;28;20053;-31
2021/12/25 11:21:18;;;;;;;3.97;0.80;;;-0.30;99.90;;;;;;4988590;28;20061;-31
2021/12/25 11:23:45;;;;;;;4.00;0.60;;;-0.20;99.90;;;;;;4980464;28;20039;-31
2021/12/25 11:26:12;;;;;;;5.60;0.63;;;-0.20;99.90;;;;;;4961068;28;20055;-31
2021/12/25 11:28:41;;;;;;;3.70;0.60;;;-0.20;99.90;;;;;;4949083;28;20521;-31
2021/12/25 11:31:07;;;;;;;5.53;0.47;;;-0.10;99.90;;;;;;4977267;28;20577;-31
2021/12/25 11:33:32;;;;;;;3.17;0.67;;;-0.20;99.90;;;;;;4987583;28;20053;-31
2021/12/25 11:36:02;;;;;;;4.00;0.67;;;-0.20;99.90;;;;;;4970334;28;20125;-31
2021/12/25 11:38:28;;;;;;;3.13;0.60;;;-0.30;99.90;;;;;;4972748;28;20085;-31
2021/12/25 11:40:55;;;;;;;4.63;0.73;;;-0.50;99.90;;;;;;4988188;28;20514;-31
2021/12/25 11:43:40;;;;;;;5.37;0.70;;;-0.50;99.90;;;;;;4987428;28;20145;-31
2021/12/25 11:46:08;;;;;;;3.10;0.77;;;-0.60;99.90;;;;;;4984696;28;20053;-30
2021/12/25 11:48:36;;;;;;;5.10;0.63;;;-0.60;99.90;;;;;;4978260;28;20082;-31
2021/12/25 11:51:02;;;;;;;2.67;0.50;;;-0.60;99.90;;;;;;4987862;28;20417;-31
2021/12/25 11:56:33;;;;;;;1.63;0.52;;;-0.50;99.90;;;;;;4934710;28;20124;-30
2021/12/25 11:59:08;;;;;;;2.20;0.43;;;-0.60;99.90;;;;;;4981400;28;20085;-30
2021/12/25 12:01:42;;;;;;;2.90;0.73;;;-0.60;99.90;;;;;;4982522;28;20038;-30
2021/12/25 12:04:10;;;;;;;5.30;0.73;;;-0.70;99.90;;;;;;4983486;28;20079;-31
2021/12/25 12:06:45;;;;;;;4.37;0.53;;;-0.80;99.90;;;;;;4968580;28;20550;-30
2021/12/25 12:09:18;;;;;;;4.87;0.80;;;-0.90;99.90;;;;;;4965106;28;20043;-31
2021/12/25 12:11:46;;;;;;;6.97;0.70;;;-0.90;99.90;;;;;;4985268;28;20046;-30
2021/12/25 12:14:18;;;;;;;3.53;0.70;;;-1.00;99.90;;;;;;4984593;28;20441;-30
2021/12/25 12:16:59;;;;;;;4.60;0.90;;;-1.00;99.90;;;;;;4968724;28;20054;-30
2021/12/25 12:19:35;;;;;;;1.50;0.47;;;-1.10;99.90;;;;;;4984662;28;20042;-31
2021/12/25 12:27:42;;;;;;;2.97;0.47;;;-1.30;99.90;;;;;;4968771;28;20571;-31
2021/12/25 12:30:11;;;;;;;2.93;0.60;;;-1.40;99.90;;;;;;4990508;28;20058;-30
2021/12/25 12:32:43;;;;;;;1.60;0.50;;;-1.40;99.90;;;;;;4989082;28;20049;-30
2021/12/25 12:35:28;;;;;;;2.73;0.90;;;-1.50;99.90;;;;;;4987034;28;20513;-30
2021/12/25 12:38:14;;;;;;;3.17;0.83;;;-1.50;99.90;;;;;;4971179;28;20502;-30
2021/12/25 12:40:40;;;;;;;3.00;1.20;;;-1.50;99.90;;;;;;4986877;28;20039;-30
2021/12/25 12:43:06;;;;;;;2.77;0.70;;;-1.50;99.90;;;;;;4984915;28;20061;-30
2021/12/25 12:45:35;;;;;;;3.87;1.10;;;-1.40;99.90;;;;;;5005364;28;20042;-31
2021/12/25 12:48:19;;;;;;;5.30;1.00;;;-1.40;99.90;;;;;;4988116;28;20067;-30
2021/12/25 12:50:55;;;;;;;3.27;1.03;;;-1.40;99.90;;;;;;5003110;28;20405;-30
2021/12/25 12:53:26;;;;;;;6.50;1.00;;;-1.40;99.90;;;;;;5003228;28;20041;-30
2021/12/25 12:56:02;;;;;;;4.32;0.70;;;-1.50;99.90;;;;;;5004637;28;20509;-31
2021/12/25 12:58:28;;;;;;;3.03;0.90;;;-1.50;99.90;;;;;;4983689;28;20048;-30
2021/12/25 13:01:00;;;;;;;4.50;1.00;;;-1.60;99.90;;;;;;5007722;28;20431;-30
2021/12/25 13:03:28;;;;;;;3.33;1.13;;;-1.60;99.90;;;;;;4987446;28;20085;-31
2021/12/25 13:06:03;;;;;;;5.40;1.00;;;-1.60;99.90;;;;;;4997877;28;20045;-31
2021/12/25 13:08:33;;;;;;;2.23;0.60;;;-1.60;99.90;;;;;;4953756;28;20054;-30
2021/12/25 13:11:10;;;;;;;2.23;0.60;;;-1.70;99.90;;;;;;5018937;28;20060;-31
2021/12/25 13:13:47;;;;;;;2.83;1.00;;;-1.70;99.90;;;;;;5024886;28;20041;-30
2021/12/25 13:16:16;;;;;;;5.03;0.90;;;-1.70;99.90;;;;;;4979190;28;20528;-30
2021/12/25 13:18:43;;;;;;;3.87;0.80;;;-1.80;99.90;;;;;;4995154;28;20077;-30
2021/12/25 13:21:17;;;;;;;5.30;1.10;;;-1.70;99.90;;;;;;4997061;28;20275;-30
2021/12/25 13:23:53;;;;;;;5.77;0.70;;;-1.70;99.90;;;;;;4994548;28;20050;-31
2021/12/25 13:26:33;;;;;;;3.87;1.00;;;-1.80;99.90;;;;;;4990301;28;20127;-30
2021/12/25 13:29:05;;;;;;;2.77;0.73;;;-1.80;99.90;;;;;;4986352;28;20050;-31
2021/12/25 13:31:33;;;;;;;1.97;0.53;;;-1.80;99.90;;;;;;4984354;28;20038;-30
2021/12/25 13:34:03;;;;;;;4.90;1.07;;;-1.80;99.90;;;;;;4983342;28;20046;-30
2021/12/25 13:36:34;;;;;;;3.13;0.77;;;-1.90;99.90;;;;;;4966800;28;21234;-30
2021/12/25 13:39:12;;;;;;;1.90;0.80;;;-1.90;99.90;;;;;;4978729;28;20041;-30
2021/12/25 13:41:57;;;;;;;2.93;0.80;;;-1.90;99.90;;;;;;4983113;28;20045;-30
2021/12/25 13:44:24;;;;;;;4.10;0.90;;;-2.00;99.90;;;;;;4982344;28;20047;-31
2021/12/25 13:46:53;;;;;;;4.57;1.00;;;-2.00;99.90;;;;;;4961536;28;20396;-30
2021/12/25 13:49:38;;;;;;;6.47;1.00;;;-2.00;99.90;;;;;;4981291;28;20050;-30
2021/12/25 13:52:05;;;;;;;4.60;0.93;;;-2.00;99.90;;;;;;4965740;28;20144;-31
2021/12/25 13:54:32;;;;;;;5.27;0.87;;;-2.10;99.90;;;;;;4982899;28;20057;-30
2021/12/25 13:56:58;;;;;;;5.40;0.83;;;-2.10;99.90;;;;;;4967820;28;20241;-30
2021/12/25 13:59:25;;;;;;;3.43;0.80;;;-2.10;99.90;;;;;;4982300;28;20100;-31
2021/12/25 14:02:06;;;;;;;3.53;0.90;;;-2.10;99.90;;;;;;4985030;28;20038;-30
2021/12/25 14:04:33;;;;;;;3.60;0.80;;;-2.10;99.90;;;;;;4980746;28;20038;-30
2021/12/25 14:07:00;;;;;;;8.90;1.00;;;-2.20;99.90;;;;;;4963571;28;20085;-30
2021/12/25 14:09:25;;;;;;;4.47;0.97;;;-2.20;99.90;;;;;;4981215;28;20047;-30
2021/12/25 14:11:54;;;;;;;5.47;0.90;;;-2.20;99.90;;;;;;4984237;28;20046;-30
2021/12/25 14:14:23;;;;;;;3.43;0.90;;;-2.20;99.90;;;;;;4966571;28;20053;-30
2021/12/25 14:16:50;;;;;;;5.23;0.70;;;-2.30;99.90;;;;;;4965972;28;20046;-31